sensor_id;sensor_type;location;lat;lon;timestamp;pressure;altitude;pressure_sealevel;temperature;humidity
42297;BME280;72430;47.456;19.016;2024-03-02T00:02:41;99748.94;;;10.77;89.12
42297;BME280;72430;47.456;19.016;2024-03-02T00:05:44;99741.50;;;10.70;88.27
42297;BME280;72430;47.456;19.016;2024-03-02T00:08:49;99732.41;;;10.71;88.04
42297;BME280;72430;47.456;19.016;2024-03-02T00:11:51;99723.28;;;10.82;87.13
42297;BME280;72430;47.456;19.016;2024-03-02T00:14:53;99721.81;;;10.70;87.93
42297;BME280;72430;47.456;19.016;2024-03-02T00:17:56;99718.13;;;10.71;87.13
42297;BME280;72430;47.456;19.016;2024-03-02T00:20:58;99721.59;;;10.63;88.42
42297;BME280;72430;47.456;19.016;2024-03-02T00:24:18;99718.34;;;10.59;88.00
42297;BME280;72430;47.456;19.016;2024-03-02T00:27:21;99714.81;;;10.59;87.69
42297;BME280;72430;47.456;19.016;2024-03-02T00:33:48;99725.72;;;10.57;87.91
42297;BME280;72430;47.456;19.016;2024-03-02T00:36:50;99731.44;;;10.54;87.22
42297;BME280;72430;47.456;19.016;2024-03-02T00:39:52;99726.28;;;10.61;86.59
42297;BME280;72430;47.456;19.016;2024-03-02T00:42:56;99728.72;;;10.54;86.19
42297;BME280;72430;47.456;19.016;2024-03-02T00:45:57;99728.84;;;10.34;88.14
42297;BME280;72430;47.456;19.016;2024-03-02T00:49:02;99723.41;;;10.63;85.91
42297;BME280;72430;47.456;19.016;2024-03-02T00:52:05;99727.34;;;10.50;85.67
42297;BME280;72430;47.456;19.016;2024-03-02T00:55:08;99744.34;;;10.69;85.10
42297;BME280;72430;47.456;19.016;2024-03-02T00:58:10;99726.50;;;10.50;86.49
42297;BME280;72430;47.456;19.016;2024-03-02T01:01:12;99724.03;;;10.56;85.14
42297;BME280;72430;47.456;19.016;2024-03-02T01:04:14;99725.13;;;10.64;84.12
42297;BME280;72430;47.456;19.016;2024-03-02T01:07:15;99721.34;;;10.74;83.15
42297;BME280;72430;47.456;19.016;2024-03-02T01:10:17;99729.19;;;10.68;83.26
42297;BME280;72430;47.456;19.016;2024-03-02T01:13:19;99732.09;;;10.56;83.58
42297;BME280;72430;47.456;19.016;2024-03-02T01:16:21;99731.66;;;10.61;83.59
42297;BME280;72430;47.456;19.016;2024-03-02T01:19:23;99725.56;;;10.41;85.07
42297;BME280;72430;47.456;19.016;2024-03-02T01:22:25;99714.75;;;10.51;84.13
42297;BME280;72430;47.456;19.016;2024-03-02T01:25:27;99718.97;;;10.53;83.30
42297;BME280;72430;47.456;19.016;2024-03-02T01:28:28;99701.75;;;10.46;83.64
42297;BME280;72430;47.456;19.016;2024-03-02T01:31:30;99703.84;;;10.52;83.57
42297;BME280;72430;47.456;19.016;2024-03-02T01:34:32;99690.69;;;10.21;84.07
42297;BME280;72430;47.456;19.016;2024-03-02T01:37:34;99684.25;;;10.32;84.47
42297;BME280;72430;47.456;19.016;2024-03-02T01:40:37;99684.94;;;10.34;83.98
42297;BME280;72430;47.456;19.016;2024-03-02T01:43:39;99677.13;;;10.41;83.43
42297;BME280;72430;47.456;19.016;2024-03-02T01:46:42;99668.03;;;10.24;84.89
42297;BME280;72430;47.456;19.016;2024-03-02T01:49:44;99675.03;;;10.34;84.59
42297;BME280;72430;47.456;19.016;2024-03-02T01:52:46;99682.22;;;10.44;83.14
42297;BME280;72430;47.456;19.016;2024-03-02T01:55:48;99684.25;;;10.32;84.25
42297;BME280;72430;47.456;19.016;2024-03-02T01:58:49;99693.03;;;10.34;85.00
42297;BME280;72430;47.456;19.016;2024-03-02T02:01:51;99686.09;;;10.31;83.78
42297;BME280;72430;47.456;19.016;2024-03-02T02:04:53;99685.63;;;10.18;85.76
42297;BME280;72430;47.456;19.016;2024-03-02T02:07:55;99691.34;;;10.33;85.09
42297;BME280;72430;47.456;19.016;2024-03-02T02:10:57;99699.94;;;10.37;85.04
42297;BME280;72430;47.456;19.016;2024-03-02T02:13:58;99703.31;;;10.20;85.31
42297;BME280;72430;47.456;19.016;2024-03-02T02:17:00;99708.63;;;10.30;85.27
42297;BME280;72430;47.456;19.016;2024-03-02T02:20:02;99713.06;;;10.40;85.03
42297;BME280;72430;47.456;19.016;2024-03-02T02:23:07;99715.53;;;10.33;83.89
42297;BME280;72430;47.456;19.016;2024-03-02T02:26:11;99712.84;;;10.33;83.92
42297;BME280;72430;47.456;19.016;2024-03-02T02:29:13;99717.38;;;10.32;84.88
42297;BME280;72430;47.456;19.016;2024-03-02T02:32:15;99723.97;;;10.02;84.67
42297;BME280;72430;47.456;19.016;2024-03-02T02:35:17;99724.72;;;10.12;85.48
42297;BME280;72430;47.456;19.016;2024-03-02T02:38:19;99721.94;;;10.04;85.76
42297;BME280;72430;47.456;19.016;2024-03-02T02:41:21;99714.00;;;10.30;84.28
42297;BME280;72430;47.456;19.016;2024-03-02T02:44:23;99715.75;;;10.21;85.79
42297;BME280;72430;47.456;19.016;2024-03-02T02:47:26;99715.66;;;10.13;85.94
42297;BME280;72430;47.456;19.016;2024-03-02T02:50:28;99707.94;;;10.28;84.87
42297;BME280;72430;47.456;19.016;2024-03-02T02:53:29;99707.22;;;10.08;87.03
42297;BME280;72430;47.456;19.016;2024-03-02T02:56:31;99704.31;;;10.19;85.22
42297;BME280;72430;47.456;19.016;2024-03-02T02:59:35;99705.34;;;10.08;85.03
42297;BME280;72430;47.456;19.016;2024-03-02T03:02:38;99706.97;;;10.01;85.81
42297;BME280;72430;47.456;19.016;2024-03-02T03:05:40;99706.28;;;9.99;86.76
42297;BME280;72430;47.456;19.016;2024-03-02T03:08:42;99704.59;;;10.16;85.17
42297;BME280;72430;47.456;19.016;2024-03-02T03:11:43;99714.88;;;10.03;86.17
42297;BME280;72430;47.456;19.016;2024-03-02T03:14:45;99721.56;;;9.99;86.61
42297;BME280;72430;47.456;19.016;2024-03-02T03:17:47;99728.16;;;10.04;85.56
42297;BME280;72430;47.456;19.016;2024-03-02T03:20:49;99727.47;;;10.02;85.22
42297;BME280;72430;47.456;19.016;2024-03-02T03:23:51;99720.91;;;9.87;85.67
42297;BME280;72430;47.456;19.016;2024-03-02T03:26:53;99712.34;;;10.01;85.18
42297;BME280;72430;47.456;19.016;2024-03-02T03:29:55;99717.66;;;10.11;84.79
42297;BME280;72430;47.456;19.016;2024-03-02T03:32:56;99718.00;;;9.98;85.99
42297;BME280;72430;47.456;19.016;2024-03-02T03:35:58;99713.13;;;10.12;85.49
42297;BME280;72430;47.456;19.016;2024-03-02T03:39:00;99715.28;;;10.08;84.70
42297;BME280;72430;47.456;19.016;2024-03-02T03:42:04;99717.81;;;10.10;84.09
42297;BME280;72430;47.456;19.016;2024-03-02T03:45:07;99721.53;;;10.27;84.04
42297;BME280;72430;47.456;19.016;2024-03-02T03:48:09;99724.97;;;10.19;84.04
42297;BME280;72430;47.456;19.016;2024-03-02T03:51:11;99729.75;;;10.25;83.45
42297;BME280;72430;47.456;19.016;2024-03-02T03:54:12;99734.13;;;10.26;83.20
42297;BME280;72430;47.456;19.016;2024-03-02T03:57:14;99734.13;;;10.26;83.79
42297;BME280;72430;47.456;19.016;2024-03-02T04:00:16;99737.22;;;10.31;83.38
42297;BME280;72430;47.456;19.016;2024-03-02T04:03:18;99746.28;;;10.30;83.98
42297;BME280;72430;47.456;19.016;2024-03-02T04:06:20;99742.44;;;10.33;84.08
42297;BME280;72430;47.456;19.016;2024-03-02T04:09:21;99747.72;;;10.25;84.06
42297;BME280;72430;47.456;19.016;2024-03-02T04:12:23;99744.59;;;10.29;84.03
42297;BME280;72430;47.456;19.016;2024-03-02T04:15:25;99746.53;;;10.37;82.93
42297;BME280;72430;47.456;19.016;2024-03-02T04:18:27;99752.81;;;10.28;83.99
42297;BME280;72430;47.456;19.016;2024-03-02T04:21:29;99752.06;;;10.36;83.74
42297;BME280;72430;47.456;19.016;2024-03-02T04:24:30;99758.81;;;10.21;85.83
42297;BME280;72430;47.456;19.016;2024-03-02T04:27:32;99762.31;;;10.22;86.69
42297;BME280;72430;47.456;19.016;2024-03-02T04:30:35;99757.94;;;10.21;86.61
42297;BME280;72430;47.456;19.016;2024-03-02T04:33:37;99755.44;;;10.10;88.61
42297;BME280;72430;47.456;19.016;2024-03-02T04:36:38;99751.94;;;10.09;88.22
42297;BME280;72430;47.456;19.016;2024-03-02T04:39:40;99763.84;;;10.06;88.00
42297;BME280;72430;47.456;19.016;2024-03-02T04:42:42;99753.75;;;10.08;88.83
42297;BME280;72430;47.456;19.016;2024-03-02T04:45:44;99753.22;;;10.05;89.33
42297;BME280;72430;47.456;19.016;2024-03-02T04:48:46;99758.13;;;10.10;90.04
42297;BME280;72430;47.456;19.016;2024-03-02T04:51:48;99759.06;;;10.00;90.76
42297;BME280;72430;47.456;19.016;2024-03-02T04:54:50;99765.53;;;10.07;89.26
42297;BME280;72430;47.456;19.016;2024-03-02T04:58:10;99762.28;;;10.04;90.98
42297;BME280;72430;47.456;19.016;2024-03-02T05:01:12;99764.66;;;10.07;89.56
42297;BME280;72430;47.456;19.016;2024-03-02T05:04:14;99755.16;;;9.85;91.86
42297;BME280;72430;47.456;19.016;2024-03-02T05:07:16;99750.78;;;9.84;92.45
42297;BME280;72430;47.456;19.016;2024-03-02T05:10:18;99756.97;;;9.94;91.05
42297;BME280;72430;47.456;19.016;2024-03-02T05:13:19;99754.41;;;9.92;91.46
42297;BME280;72430;47.456;19.016;2024-03-02T05:16:22;99758.53;;;9.87;92.46
42297;BME280;72430;47.456;19.016;2024-03-02T05:19:24;99763.13;;;9.76;93.76
42297;BME280;72430;47.456;19.016;2024-03-02T05:22:26;99763.63;;;9.90;92.08
42297;BME280;72430;47.456;19.016;2024-03-02T05:25:28;99762.75;;;9.89;92.49
42297;BME280;72430;47.456;19.016;2024-03-02T05:28:31;99758.66;;;9.95;92.18
42297;BME280;72430;47.456;19.016;2024-03-02T05:31:33;99765.69;;;9.68;94.85
42297;BME280;72430;47.456;19.016;2024-03-02T05:34:35;99762.81;;;9.79;93.36
42297;BME280;72430;47.456;19.016;2024-03-02T05:37:37;99754.94;;;9.68;95.88
42297;BME280;72430;47.456;19.016;2024-03-02T05:40:38;99755.38;;;9.63;95.91
42297;BME280;72430;47.456;19.016;2024-03-02T05:43:40;99753.09;;;9.69;95.34
42297;BME280;72430;47.456;19.016;2024-03-02T05:46:42;99758.75;;;9.75;95.41
42297;BME280;72430;47.456;19.016;2024-03-02T05:49:44;99765.31;;;9.91;94.43
42297;BME280;72430;47.456;19.016;2024-03-02T05:52:46;99770.69;;;9.91;93.48
42297;BME280;72430;47.456;19.016;2024-03-02T05:55:48;99770.31;;;9.76;94.73
42297;BME280;72430;47.456;19.016;2024-03-02T05:58:55;99775.25;;;9.80;95.21
42297;BME280;72430;47.456;19.016;2024-03-02T06:02:10;99794.25;;;9.79;95.31
42297;BME280;72430;47.456;19.016;2024-03-02T06:05:11;99797.34;;;9.74;94.47
42297;BME280;72430;47.456;19.016;2024-03-02T06:08:13;99802.41;;;9.87;93.94
42297;BME280;72430;47.456;19.016;2024-03-02T06:11:15;99802.59;;;9.76;94.84
42297;BME280;72430;47.456;19.016;2024-03-02T06:14:17;99803.41;;;9.86;95.24
42297;BME280;72430;47.456;19.016;2024-03-02T06:17:19;99798.13;;;9.94;94.78
42297;BME280;72430;47.456;19.016;2024-03-02T06:20:21;99798.44;;;9.91;95.08
42297;BME280;72430;47.456;19.016;2024-03-02T06:23:23;99790.88;;;10.05;94.40
42297;BME280;72430;47.456;19.016;2024-03-02T06:26:24;99796.25;;;10.05;94.08
42297;BME280;72430;47.456;19.016;2024-03-02T06:29:26;99804.38;;;9.95;95.32
42297;BME280;72430;47.456;19.016;2024-03-02T06:32:28;99801.63;;;10.05;94.80
42297;BME280;72430;47.456;19.016;2024-03-02T06:35:30;99809.16;;;10.01;95.60
42297;BME280;72430;47.456;19.016;2024-03-02T06:38:32;99805.25;;;10.14;94.48
42297;BME280;72430;47.456;19.016;2024-03-02T06:41:34;99805.25;;;10.14;94.64
42297;BME280;72430;47.456;19.016;2024-03-02T06:44:35;99809.16;;;10.01;95.47
42297;BME280;72430;47.456;19.016;2024-03-02T06:47:37;99803.94;;;10.28;94.12
42297;BME280;72430;47.456;19.016;2024-03-02T06:50:39;99798.75;;;10.16;94.70
42297;BME280;72430;47.456;19.016;2024-03-02T06:53:41;99808.03;;;10.22;93.82
42297;BME280;72430;47.456;19.016;2024-03-02T06:56:42;99802.38;;;10.25;94.34
42297;BME280;72430;47.456;19.016;2024-03-02T06:59:44;99811.84;;;10.29;94.37
42297;BME280;72430;47.456;19.016;2024-03-02T07:02:46;99810.84;;;10.30;93.59
42297;BME280;72430;47.456;19.016;2024-03-02T07:05:48;99808.56;;;10.36;94.87
42297;BME280;72430;47.456;19.016;2024-03-02T07:08:50;99812.47;;;10.23;95.14
42297;BME280;72430;47.456;19.016;2024-03-02T07:11:51;99811.31;;;10.26;95.60
42297;BME280;72430;47.456;19.016;2024-03-02T07:14:53;99813.41;;;10.32;95.16
42297;BME280;72430;47.456;19.016;2024-03-02T07:18:06;99809.41;;;10.36;94.01
42297;BME280;72430;47.456;19.016;2024-03-02T07:21:07;99818.72;;;10.42;93.48
42297;BME280;72430;47.456;19.016;2024-03-02T07:24:09;99820.31;;;10.44;93.50
42297;BME280;72430;47.456;19.016;2024-03-02T07:27:16;99819.56;;;10.42;94.37
42297;BME280;72430;47.456;19.016;2024-03-02T07:30:18;99819.16;;;10.47;94.78
42297;BME280;72430;47.456;19.016;2024-03-02T07:33:20;99820.25;;;10.54;94.31
42297;BME280;72430;47.456;19.016;2024-03-02T07:36:23;99820.69;;;10.50;94.67
42297;BME280;72430;47.456;19.016;2024-03-02T07:39:25;99817.47;;;10.46;94.84
42297;BME280;72430;47.456;19.016;2024-03-02T07:42:27;99827.44;;;10.54;93.64
42297;BME280;72430;47.456;19.016;2024-03-02T07:45:29;99828.22;;;10.46;95.33
42297;BME280;72430;47.456;19.016;2024-03-02T07:48:31;99840.16;;;10.61;93.54
42297;BME280;72430;47.456;19.016;2024-03-02T07:51:33;99830.59;;;10.49;95.15
42297;BME280;72430;47.456;19.016;2024-03-02T07:54:35;99837.63;;;10.60;95.14
42297;BME280;72430;47.456;19.016;2024-03-02T07:57:36;99842.03;;;10.61;94.51
42297;BME280;72430;47.456;19.016;2024-03-02T08:00:39;99840.91;;;10.54;94.28
42297;BME280;72430;47.456;19.016;2024-03-02T08:03:42;99842.03;;;10.61;93.87
42297;BME280;72430;47.456;19.016;2024-03-02T08:06:45;99835.50;;;10.64;93.79
42297;BME280;72430;47.456;19.016;2024-03-02T08:09:47;99837.69;;;10.50;94.21
42297;BME280;72430;47.456;19.016;2024-03-02T08:12:48;99849.94;;;10.63;94.03
42297;BME280;72430;47.456;19.016;2024-03-02T08:15:50;99843.47;;;10.55;94.86
42297;BME280;72430;47.456;19.016;2024-03-02T08:18:52;99843.06;;;10.50;95.04
42297;BME280;72430;47.456;19.016;2024-03-02T08:21:55;99851.13;;;10.50;95.96
42297;BME280;72430;47.456;19.016;2024-03-02T08:24:57;99847.41;;;10.61;94.02
42297;BME280;72430;47.456;19.016;2024-03-02T08:27:59;99848.34;;;10.70;95.02
42297;BME280;72430;47.456;19.016;2024-03-02T08:31:01;99844.47;;;10.72;93.98
42297;BME280;72430;47.456;19.016;2024-03-02T08:34:03;99837.41;;;10.71;94.75
42297;BME280;72430;47.456;19.016;2024-03-02T08:37:05;99841.56;;;10.66;96.16
42297;BME280;72430;47.456;19.016;2024-03-02T08:40:08;99847.03;;;10.74;95.78
42297;BME280;72430;47.456;19.016;2024-03-02T08:43:10;99847.81;;;10.84;nan
42297;BME280;72430;47.456;19.016;2024-03-02T08:46:13;99849.97;;;10.81;94.67
42297;BME280;72430;47.456;19.016;2024-03-02T08:49:14;99846.59;;;10.79;95.81
42297;BME280;72430;47.456;19.016;2024-03-02T08:52:16;99846.19;;;10.73;95.73
42297;BME280;72430;47.456;19.016;2024-03-02T08:55:18;99850.91;;;10.90;95.15
42297;BME280;72430;47.456;19.016;2024-03-02T08:58:20;99845.13;;;10.84;95.41
42297;BME280;72430;47.456;19.016;2024-03-02T09:01:22;99846.44;;;10.98;95.17
42297;BME280;72430;47.456;19.016;2024-03-02T09:04:24;99841.88;;;10.99;95.92
42297;BME280;72430;47.456;19.016;2024-03-02T09:07:29;99845.44;;;10.99;96.52
42297;BME280;72430;47.456;19.016;2024-03-02T09:10:30;99845.59;;;10.98;95.56
42297;BME280;72430;47.456;19.016;2024-03-02T09:13:33;99851.97;;;10.97;94.83
42297;BME280;72430;47.456;19.016;2024-03-02T09:16:35;99850.91;;;10.90;95.62
42297;BME280;72430;47.456;19.016;2024-03-02T09:19:36;99852.50;;;10.82;96.31
42297;BME280;72430;47.456;19.016;2024-03-02T09:22:38;99850.53;;;11.03;95.75
42297;BME280;72430;47.456;19.016;2024-03-02T09:25:40;99845.81;;;11.05;95.48
42297;BME280;72430;47.456;19.016;2024-03-02T09:28:44;99851.06;;;11.06;94.31
42297;BME280;72430;47.456;19.016;2024-03-02T09:31:46;99851.88;;;11.07;94.16
42297;BME280;72430;47.456;19.016;2024-03-02T09:34:48;99851.88;;;11.07;95.03
42297;BME280;72430;47.456;19.016;2024-03-02T09:37:50;99856.56;;;10.86;95.14
42297;BME280;72430;47.456;19.016;2024-03-02T09:40:52;99858.22;;;10.97;93.92
42297;BME280;72430;47.456;19.016;2024-03-02T09:43:55;99849.75;;;10.92;94.74
42297;BME280;72430;47.456;19.016;2024-03-02T09:46:57;99855.00;;;10.94;95.35
42297;BME280;72430;47.456;19.016;2024-03-02T09:49:59;99851.16;;;10.96;94.16
42297;BME280;72430;47.456;19.016;2024-03-02T09:53:01;99854.81;;;10.95;93.76
42297;BME280;72430;47.456;19.016;2024-03-02T09:56:03;99859.38;;;10.95;93.98
42297;BME280;72430;47.456;19.016;2024-03-02T09:59:06;99854.19;;;11.01;94.05
42297;BME280;72430;47.456;19.016;2024-03-02T10:02:08;99858.00;;;11.09;94.04
42297;BME280;72430;47.456;19.016;2024-03-02T10:05:10;99853.97;;;10.95;94.83
42297;BME280;72430;47.456;19.016;2024-03-02T10:08:13;99857.28;;;11.07;94.62
42297;BME280;72430;47.456;19.016;2024-03-02T10:11:26;99849.13;;;11.17;93.21
42297;BME280;72430;47.456;19.016;2024-03-02T10:14:29;99846.59;;;11.15;93.23
42297;BME280;72430;47.456;19.016;2024-03-02T10:17:31;99849.91;;;11.09;94.53
42297;BME280;72430;47.456;19.016;2024-03-02T10:20:33;99852.19;;;11.22;93.73
42297;BME280;72430;47.456;19.016;2024-03-02T10:23:36;99850.03;;;11.25;92.54
42297;BME280;72430;47.456;19.016;2024-03-02T10:26:38;99852.66;;;11.17;93.85
42297;BME280;72430;47.456;19.016;2024-03-02T10:29:40;99849.88;;;11.27;94.14
42297;BME280;72430;47.456;19.016;2024-03-02T10:32:42;99848.59;;;11.13;93.98
42297;BME280;72430;47.456;19.016;2024-03-02T10:35:44;99848.28;;;11.16;93.00
42297;BME280;72430;47.456;19.016;2024-03-02T10:38:49;99848.38;;;11.06;94.29
42297;BME280;72430;47.456;19.016;2024-03-02T10:41:52;99845.06;;;11.12;94.40
42297;BME280;72430;47.456;19.016;2024-03-02T10:44:54;99846.13;;;11.20;93.96
42297;BME280;72430;47.456;19.016;2024-03-02T10:47:56;99844.13;;;11.22;94.61
42297;BME280;72430;47.456;19.016;2024-03-02T10:50:59;99836.94;;;11.31;94.14
42297;BME280;72430;47.456;19.016;2024-03-02T10:54:04;99844.88;;;11.32;94.30
42297;BME280;72430;47.456;19.016;2024-03-02T10:57:07;99842.81;;;11.26;94.01
42297;BME280;72430;47.456;19.016;2024-03-02T11:00:13;99843.03;;;11.33;93.54
42297;BME280;72430;47.456;19.016;2024-03-02T11:03:18;99840.56;;;11.39;94.90
42297;BME280;72430;47.456;19.016;2024-03-02T11:06:23;99834.25;;;11.49;94.40
42297;BME280;72430;47.456;19.016;2024-03-02T11:09:28;99831.00;;;11.45;93.78
42297;BME280;72430;47.456;19.016;2024-03-02T11:12:37;99827.88;;;11.58;93.49
42297;BME280;72430;47.456;19.016;2024-03-02T11:15:43;99821.78;;;11.74;94.00
42297;BME280;72430;47.456;19.016;2024-03-02T11:18:46;99820.44;;;11.78;93.75
42297;BME280;72430;47.456;19.016;2024-03-02T11:21:52;99816.56;;;11.81;93.38
42297;BME280;72430;47.456;19.016;2024-03-02T11:24:54;99819.28;;;11.81;93.75
42297;BME280;72430;47.456;19.016;2024-03-02T11:30:58;99814.53;;;11.75;93.41
42297;BME280;72430;47.456;19.016;2024-03-02T11:34:18;99816.06;;;11.77;93.13
42297;BME280;72430;47.456;19.016;2024-03-02T11:37:30;99812.47;;;11.68;92.89
42297;BME280;72430;47.456;19.016;2024-03-02T11:40:32;99817.47;;;11.63;92.81
42297;BME280;72430;47.456;19.016;2024-03-02T11:43:37;99821.97;;;11.54;93.06
42297;BME280;72430;47.456;19.016;2024-03-02T11:46:41;99811.41;;;11.61;92.82
42297;BME280;72430;47.456;19.016;2024-03-02T11:49:46;99821.00;;;11.37;93.39
42297;BME280;72430;47.456;19.016;2024-03-02T11:52:50;99812.00;;;11.28;93.78
42297;BME280;72430;47.456;19.016;2024-03-02T11:55:52;99810.72;;;11.59;92.87
42297;BME280;72430;47.456;19.016;2024-03-02T11:58:56;99811.88;;;11.57;93.14
42297;BME280;72430;47.456;19.016;2024-03-02T12:02:00;99814.25;;;11.60;93.48
42297;BME280;72430;47.456;19.016;2024-03-02T12:05:02;99809.91;;;11.67;92.34
42297;BME280;72430;47.456;19.016;2024-03-02T12:08:06;99815.66;;;11.46;92.88
42297;BME280;72430;47.456;19.016;2024-03-02T12:11:12;99815.47;;;11.21;92.84
42297;BME280;72430;47.456;19.016;2024-03-02T12:14:17;99811.66;;;11.50;93.30
42297;BME280;72430;47.456;19.016;2024-03-02T12:17:19;99811.88;;;11.57;93.88
42297;BME280;72430;47.456;19.016;2024-03-02T12:20:21;99806.44;;;11.75;92.26
42297;BME280;72430;47.456;19.016;2024-03-02T12:23:25;99809.34;;;11.81;92.85
42297;BME280;72430;47.456;19.016;2024-03-02T12:26:28;99811.38;;;11.79;92.55
42297;BME280;72430;47.456;19.016;2024-03-02T12:29:30;99814.22;;;11.78;92.34
42297;BME280;72430;47.456;19.016;2024-03-02T12:32:32;99811.16;;;11.73;92.54
42297;BME280;72430;47.456;19.016;2024-03-02T12:35:36;99811.38;;;11.79;91.95
42297;BME280;72430;47.456;19.016;2024-03-02T12:38:37;99812.03;;;11.81;92.18
42297;BME280;72430;47.456;19.016;2024-03-02T12:41:46;99809.13;;;11.75;92.89
42297;BME280;72430;47.456;19.016;2024-03-02T12:44:48;99804.81;;;11.82;92.28
42297;BME280;72430;47.456;19.016;2024-03-02T12:47:50;99814.31;;;11.68;92.84
42297;BME280;72430;47.456;19.016;2024-03-02T12:50:58;99823.69;;;11.55;93.67
42297;BME280;72430;47.456;19.016;2024-03-02T12:54:00;99813.81;;;11.64;91.43
42297;BME280;72430;47.456;19.016;2024-03-02T12:57:02;99822.19;;;11.61;91.52
42297;BME280;72430;47.456;19.016;2024-03-02T13:00:05;99826.16;;;11.49;91.24
42297;BME280;72430;47.456;19.016;2024-03-02T13:03:11;99812.03;;;11.55;91.90
42297;BME280;72430;47.456;19.016;2024-03-02T13:06:16;99816.03;;;11.51;92.07
42297;BME280;72430;47.456;19.016;2024-03-02T13:09:18;99806.69;;;11.63;90.78
42297;BME280;72430;47.456;19.016;2024-03-02T13:12:22;99817.38;;;11.47;92.04
42297;BME280;72430;47.456;19.016;2024-03-02T13:15:26;99816.75;;;11.53;91.71
42297;BME280;72430;47.456;19.016;2024-03-02T13:18:28;99812.19;;;11.53;91.30
42297;BME280;72430;47.456;19.016;2024-03-02T13:21:31;99813.47;;;11.41;91.79
42297;BME280;72430;47.456;19.016;2024-03-02T13:24:32;99813.06;;;11.36;91.81
42297;BME280;72430;47.456;19.016;2024-03-02T13:27:34;99821.88;;;11.38;91.85
42297;BME280;72430;47.456;19.016;2024-03-02T13:30:36;99818.78;;;11.33;91.66
42297;BME280;72430;47.456;19.016;2024-03-02T13:33:38;99817.03;;;11.23;92.57
42297;BME280;72430;47.456;19.016;2024-03-02T13:36:40;99823.56;;;11.21;92.32
42297;BME280;72430;47.456;19.016;2024-03-02T13:39:42;99819.56;;;11.25;91.85
42297;BME280;72430;47.456;19.016;2024-03-02T13:42:44;99826.06;;;11.14;92.17
42297;BME280;72430;47.456;19.016;2024-03-02T13:45:46;99828.97;;;10.84;92.08
42297;BME280;72430;47.456;19.016;2024-03-02T13:48:47;99831.28;;;10.97;91.82
42297;BME280;72430;47.456;19.016;2024-03-02T13:51:49;99827.88;;;10.95;93.39
42297;BME280;72430;47.456;19.016;2024-03-02T13:54:51;99832.22;;;11.06;92.25
42297;BME280;72430;47.456;19.016;2024-03-02T13:57:56;99835.41;;;10.92;92.37
42297;BME280;72430;47.456;19.016;2024-03-02T14:00:58;99841.28;;;10.87;92.65
42297;BME280;72430;47.456;19.016;2024-03-02T14:04:00;99840.81;;;10.92;92.64
42297;BME280;72430;47.456;19.016;2024-03-02T14:07:03;99836.03;;;10.67;93.26
42297;BME280;72430;47.456;19.016;2024-03-02T14:10:05;99838.25;;;10.72;93.97
42297;BME280;72430;47.456;19.016;2024-03-02T14:13:07;99836.78;;;10.78;93.00
42297;BME280;72430;47.456;19.016;2024-03-02T14:16:09;99847.63;;;10.68;93.52
42297;BME280;72430;47.456;19.016;2024-03-02T14:19:11;99851.31;;;10.67;93.65
42297;BME280;72430;47.456;19.016;2024-03-02T14:22:13;99854.41;;;10.72;94.09
42297;BME280;72430;47.456;19.016;2024-03-02T14:25:19;99847.00;;;10.56;94.48
42297;BME280;72430;47.456;19.016;2024-03-02T14:28:21;99852.00;;;10.51;94.25
42297;BME280;72430;47.456;19.016;2024-03-02T14:31:42;99850.72;;;10.45;94.65
42297;BME280;72430;47.456;19.016;2024-03-02T14:34:45;99847.69;;;10.58;94.17
42297;BME280;72430;47.456;19.016;2024-03-02T14:37:48;99839.97;;;10.45;93.81
42297;BME280;72430;47.456;19.016;2024-03-02T14:40:50;99844.75;;;10.51;94.43
42297;BME280;72430;47.456;19.016;2024-03-02T14:43:53;99846.59;;;10.51;93.49
42297;BME280;72430;47.456;19.016;2024-03-02T14:46:55;99847.91;;;10.37;95.41
42297;BME280;72430;47.456;19.016;2024-03-02T14:50:00;99839.69;;;10.48;94.07
42297;BME280;72430;47.456;19.016;2024-03-02T14:53:02;99841.72;;;10.26;94.50
42297;BME280;72430;47.456;19.016;2024-03-02T14:56:04;99843.94;;;10.41;95.29
42297;BME280;72430;47.456;19.016;2024-03-02T14:59:06;99843.81;;;10.32;95.36
42297;BME280;72430;47.456;19.016;2024-03-02T15:02:08;99838.31;;;10.34;95.36
42297;BME280;72430;47.456;19.016;2024-03-02T15:05:10;99840.31;;;10.32;95.41
42297;BME280;72430;47.456;19.016;2024-03-02T15:08:12;99849.81;;;10.26;96.53
42297;BME280;72430;47.456;19.016;2024-03-02T15:11:14;99836.00;;;10.49;94.96
42297;BME280;72430;47.456;19.016;2024-03-02T15:14:16;99836.53;;;10.53;95.17
42297;BME280;72430;47.456;19.016;2024-03-02T15:17:18;99830.31;;;10.52;95.25
42297;BME280;72430;47.456;19.016;2024-03-02T15:20:20;99834.25;;;10.58;95.12
42297;BME280;72430;47.456;19.016;2024-03-02T15:23:23;99838.19;;;10.64;95.42
42297;BME280;72430;47.456;19.016;2024-03-02T15:26:25;99843.56;;;10.64;94.92
42297;BME280;72430;47.456;19.016;2024-03-02T15:29:27;99842.44;;;10.56;95.36
42297;BME280;72430;47.456;19.016;2024-03-02T15:32:31;99846.59;;;10.51;96.71
42297;BME280;72430;47.456;19.016;2024-03-02T15:35:33;99843.91;;;10.51;95.83
42297;BME280;72430;47.456;19.016;2024-03-02T15:38:34;99839.38;;;10.51;94.96
42297;BME280;72430;47.456;19.016;2024-03-02T15:41:45;99843.78;;;10.52;95.13
42297;BME280;72430;47.456;19.016;2024-03-02T15:44:47;99835.78;;;10.60;95.75
42297;BME280;72430;47.456;19.016;2024-03-02T15:47:49;99841.41;;;10.39;96.10
42297;BME280;72430;47.456;19.016;2024-03-02T15:50:51;99838.94;;;10.56;95.93
42297;BME280;72430;47.456;19.016;2024-03-02T15:53:54;99840.50;;;10.48;97.47
42297;BME280;72430;47.456;19.016;2024-03-02T15:56:56;99838.81;;;10.47;96.66
42297;BME280;72430;47.456;19.016;2024-03-02T15:59:58;99843.47;;;10.55;96.86
42297;BME280;72430;47.456;19.016;2024-03-02T16:02:59;99833.56;;;10.56;96.86